sensor_id;sensor_type;location;lat;lon;timestamp;P1;durP1;ratioP1;P2;durP2;ratioP2
23730;SDS011;12046;44.702;10.622;2022-10-16T00:01:19;27.20;;;16.20;;
23730;SDS011;12046;44.702;10.622;2022-10-16T00:03:47;24.80;;;17.00;;
23730;SDS011;12046;44.702;10.622;2022-10-16T00:06:14;23.27;;;16.52;;
23730;SDS011;12046;44.702;10.622;2022-10-16T00:08:41;23.27;;;16.25;;
23730;SDS011;12046;44.702;10.622;2022-10-16T00:11:09;22.73;;;15.38;;
23730;SDS011;12046;44.702;10.622;2022-10-16T00:13:39;26.77;;;16.40;;
23730;SDS011;12046;44.702;10.622;2022-10-16T00:16:06;24.40;;;17.25;;
23730;SDS011;12046;44.702;10.622;2022-10-16T00:18:33;26.52;;;16.70;;
23730;SDS011;12046;44.702;10.622;2022-10-16T00:21:03;24.35;;;16.20;;
23730;SDS011;12046;44.702;10.622;2022-10-16T00:23:34;26.13;;;16.02;;
23730;SDS011;12046;44.702;10.622;2022-10-16T00:26:04;25.65;;;16.70;;
23730;SDS011;12046;44.702;10.622;2022-10-16T00:28:34;21.33;;;15.90;;
23730;SDS011;12046;44.702;10.622;2022-10-16T00:31:06;25.00;;;16.10;;
23730;SDS011;12046;44.702;10.622;2022-10-16T00:33:34;25.15;;;16.20;;
23730;SDS011;12046;44.702;10.622;2022-10-16T00:36:01;29.83;;;16.75;;
23730;SDS011;12046;44.702;10.622;2022-10-16T00:38:28;23.45;;;16.13;;
23730;SDS011;12046;44.702;10.622;2022-10-16T00:40:54;24.50;;;16.15;;
23730;SDS011;12046;44.702;10.622;2022-10-16T00:46:13;24.90;;;17.63;;
23730;SDS011;12046;44.702;10.622;2022-10-16T00:48:41;22.20;;;13.98;;
23730;SDS011;12046;44.702;10.622;2022-10-16T00:51:10;24.70;;;15.15;;
23730;SDS011;12046;44.702;10.622;2022-10-16T00:53:37;20.33;;;13.95;;
23730;SDS011;12046;44.702;10.622;2022-10-16T00:56:03;20.95;;;14.55;;
23730;SDS011;12046;44.702;10.622;2022-10-16T00:58:29;26.10;;;17.20;;
23730;SDS011;12046;44.702;10.622;2022-10-16T01:00:55;22.85;;;15.32;;
23730;SDS011;12046;44.702;10.622;2022-10-16T01:03:27;22.65;;;16.00;;
23730;SDS011;12046;44.702;10.622;2022-10-16T01:05:59;22.85;;;16.10;;
23730;SDS011;12046;44.702;10.622;2022-10-16T01:08:43;21.33;;;14.57;;
23730;SDS011;12046;44.702;10.622;2022-10-16T01:11:45;19.38;;;14.73;;
23730;SDS011;12046;44.702;10.622;2022-10-16T01:22:55;19.02;;;13.25;;
23730;SDS011;12046;44.702;10.622;2022-10-16T01:25:52;21.95;;;13.90;;
23730;SDS011;12046;44.702;10.622;2022-10-16T01:28:13;20.95;;;13.48;;
23730;SDS011;12046;44.702;10.622;2022-10-16T01:30:42;20.45;;;13.57;;
23730;SDS011;12046;44.702;10.622;2022-10-16T01:36:06;18.17;;;12.57;;
23730;SDS011;12046;44.702;10.622;2022-10-16T01:38:38;18.98;;;13.25;;
23730;SDS011;12046;44.702;10.622;2022-10-16T01:41:09;20.00;;;12.90;;
23730;SDS011;12046;44.702;10.622;2022-10-16T01:44:01;22.25;;;13.52;;
23730;SDS011;12046;44.702;10.622;2022-10-16T01:46:31;21.50;;;13.38;;
23730;SDS011;12046;44.702;10.622;2022-10-16T01:48:59;18.42;;;13.65;;
23730;SDS011;12046;44.702;10.622;2022-10-16T01:51:27;20.58;;;12.73;;
23730;SDS011;12046;44.702;10.622;2022-10-16T01:53:55;17.60;;;12.88;;
23730;SDS011;12046;44.702;10.622;2022-10-16T01:56:24;16.88;;;11.98;;
23730;SDS011;12046;44.702;10.622;2022-10-16T02:01:27;20.30;;;13.38;;
23730;SDS011;12046;44.702;10.622;2022-10-16T02:03:56;18.92;;;12.95;;
23730;SDS011;12046;44.702;10.622;2022-10-16T02:06:28;19.02;;;13.57;;
23730;SDS011;12046;44.702;10.622;2022-10-16T02:08:54;20.50;;;12.43;;
23730;SDS011;12046;44.702;10.622;2022-10-16T02:11:20;23.15;;;12.43;;
23730;SDS011;12046;44.702;10.622;2022-10-16T02:13:48;20.27;;;14.05;;
23730;SDS011;12046;44.702;10.622;2022-10-16T02:16:18;19.90;;;13.27;;
23730;SDS011;12046;44.702;10.622;2022-10-16T02:18:44;20.83;;;12.70;;
23730;SDS011;12046;44.702;10.622;2022-10-16T02:21:16;19.10;;;12.93;;
23730;SDS011;12046;44.702;10.622;2022-10-16T02:29:26;19.38;;;12.52;;
23730;SDS011;12046;44.702;10.622;2022-10-16T02:31:54;20.63;;;13.10;;
23730;SDS011;12046;44.702;10.622;2022-10-16T02:34:25;17.77;;;12.40;;
23730;SDS011;12046;44.702;10.622;2022-10-16T02:36:53;21.80;;;14.05;;
23730;SDS011;12046;44.702;10.622;2022-10-16T02:39:20;20.20;;;13.60;;
23730;SDS011;12046;44.702;10.622;2022-10-16T02:41:47;25.13;;;13.88;;
23730;SDS011;12046;44.702;10.622;2022-10-16T02:44:13;17.90;;;12.68;;
23730;SDS011;12046;44.702;10.622;2022-10-16T02:46:39;20.50;;;14.82;;
23730;SDS011;12046;44.702;10.622;2022-10-16T02:49:05;24.15;;;14.25;;
23730;SDS011;12046;44.702;10.622;2022-10-16T02:51:31;18.23;;;12.32;;
23730;SDS011;12046;44.702;10.622;2022-10-16T02:53:57;18.90;;;13.65;;
23730;SDS011;12046;44.702;10.622;2022-10-16T02:56:23;20.00;;;14.00;;
23730;SDS011;12046;44.702;10.622;2022-10-16T02:58:49;20.85;;;13.85;;
23730;SDS011;12046;44.702;10.622;2022-10-16T03:01:15;22.80;;;13.80;;
23730;SDS011;12046;44.702;10.622;2022-10-16T03:03:42;20.13;;;13.23;;
23730;SDS011;12046;44.702;10.622;2022-10-16T03:06:08;21.80;;;14.80;;
23730;SDS011;12046;44.702;10.622;2022-10-16T03:08:34;23.00;;;15.18;;
23730;SDS011;12046;44.702;10.622;2022-10-16T03:11:00;23.52;;;15.02;;
23730;SDS011;12046;44.702;10.622;2022-10-16T03:13:26;21.45;;;15.20;;
23730;SDS011;12046;44.702;10.622;2022-10-16T03:15:52;23.58;;;15.10;;
23730;SDS011;12046;44.702;10.622;2022-10-16T03:18:18;20.15;;;13.98;;
23730;SDS011;12046;44.702;10.622;2022-10-16T03:20:44;23.75;;;14.07;;
23730;SDS011;12046;44.702;10.622;2022-10-16T03:23:10;20.52;;;14.23;;
23730;SDS011;12046;44.702;10.622;2022-10-16T03:25:36;23.05;;;13.52;;
23730;SDS011;12046;44.702;10.622;2022-10-16T03:28:02;21.60;;;13.25;;
23730;SDS011;12046;44.702;10.622;2022-10-16T03:30:28;22.75;;;14.45;;
23730;SDS011;12046;44.702;10.622;2022-10-16T03:32:54;20.40;;;13.07;;
23730;SDS011;12046;44.702;10.622;2022-10-16T03:35:20;25.88;;;14.25;;
23730;SDS011;12046;44.702;10.622;2022-10-16T03:37:47;24.52;;;15.55;;
23730;SDS011;12046;44.702;10.622;2022-10-16T03:40:13;19.40;;;13.65;;
23730;SDS011;12046;44.702;10.622;2022-10-16T03:42:40;21.85;;;14.73;;
23730;SDS011;12046;44.702;10.622;2022-10-16T03:45:08;17.90;;;12.68;;
23730;SDS011;12046;44.702;10.622;2022-10-16T03:47:35;18.70;;;13.10;;
23730;SDS011;12046;44.702;10.622;2022-10-16T03:50:02;19.33;;;12.13;;
23730;SDS011;12046;44.702;10.622;2022-10-16T03:52:28;17.65;;;12.18;;
23730;SDS011;12046;44.702;10.622;2022-10-16T03:54:54;16.33;;;10.25;;
23730;SDS011;12046;44.702;10.622;2022-10-16T03:57:21;19.10;;;11.32;;
23730;SDS011;12046;44.702;10.622;2022-10-16T03:59:47;16.70;;;11.43;;
23730;SDS011;12046;44.702;10.622;2022-10-16T04:02:13;19.15;;;11.00;;
23730;SDS011;12046;44.702;10.622;2022-10-16T04:04:39;15.35;;;10.77;;
23730;SDS011;12046;44.702;10.622;2022-10-16T04:07:05;18.15;;;11.75;;
23730;SDS011;12046;44.702;10.622;2022-10-16T04:09:31;14.27;;;10.77;;
23730;SDS011;12046;44.702;10.622;2022-10-16T04:11:56;18.63;;;11.70;;
23730;SDS011;12046;44.702;10.622;2022-10-16T04:14:22;16.50;;;11.07;;
23730;SDS011;12046;44.702;10.622;2022-10-16T04:16:49;17.38;;;10.35;;
23730;SDS011;12046;44.702;10.622;2022-10-16T04:19:15;18.42;;;10.23;;
23730;SDS011;12046;44.702;10.622;2022-10-16T04:21:41;16.50;;;10.15;;
23730;SDS011;12046;44.702;10.622;2022-10-16T04:24:07;15.57;;;10.45;;
23730;SDS011;12046;44.702;10.622;2022-10-16T04:26:33;15.40;;;9.98;;
23730;SDS011;12046;44.702;10.622;2022-10-16T04:28:59;17.50;;;10.38;;
23730;SDS011;12046;44.702;10.622;2022-10-16T04:31:26;15.85;;;11.30;;
23730;SDS011;12046;44.702;10.622;2022-10-16T04:33:52;19.98;;;11.13;;
23730;SDS011;12046;44.702;10.622;2022-10-16T04:36:18;16.95;;;9.45;;
23730;SDS011;12046;44.702;10.622;2022-10-16T04:38:43;14.52;;;9.88;;
23730;SDS011;12046;44.702;10.622;2022-10-16T04:41:09;12.65;;;9.20;;
23730;SDS011;12046;44.702;10.622;2022-10-16T04:43:36;15.10;;;10.27;;
23730;SDS011;12046;44.702;10.622;2022-10-16T04:46:02;13.60;;;10.05;;
23730;SDS011;12046;44.702;10.622;2022-10-16T04:48:30;20.20;;;10.50;;
23730;SDS011;12046;44.702;10.622;2022-10-16T04:50:56;14.77;;;9.63;;
23730;SDS011;12046;44.702;10.622;2022-10-16T04:53:22;16.85;;;10.10;;
23730;SDS011;12046;44.702;10.622;2022-10-16T04:55:48;14.75;;;9.85;;
23730;SDS011;12046;44.702;10.622;2022-10-16T04:58:15;15.77;;;10.32;;
23730;SDS011;12046;44.702;10.622;2022-10-16T05:00:40;13.85;;;9.95;;
23730;SDS011;12046;44.702;10.622;2022-10-16T05:03:06;16.17;;;10.45;;
23730;SDS011;12046;44.702;10.622;2022-10-16T05:05:34;15.52;;;9.85;;
23730;SDS011;12046;44.702;10.622;2022-10-16T05:08:01;14.77;;;10.45;;
23730;SDS011;12046;44.702;10.622;2022-10-16T05:10:28;18.63;;;10.50;;
23730;SDS011;12046;44.702;10.622;2022-10-16T05:12:53;18.17;;;10.20;;
23730;SDS011;12046;44.702;10.622;2022-10-16T05:15:19;15.95;;;10.57;;
23730;SDS011;12046;44.702;10.622;2022-10-16T05:17:46;15.73;;;10.10;;
23730;SDS011;12046;44.702;10.622;2022-10-16T05:20:12;14.40;;;10.10;;
23730;SDS011;12046;44.702;10.622;2022-10-16T05:22:38;18.50;;;11.30;;
23730;SDS011;12046;44.702;10.622;2022-10-16T05:25:04;16.98;;;10.48;;
23730;SDS011;12046;44.702;10.622;2022-10-16T05:27:30;17.50;;;10.45;;
23730;SDS011;12046;44.702;10.622;2022-10-16T05:29:56;14.82;;;10.90;;
23730;SDS011;12046;44.702;10.622;2022-10-16T05:32:22;14.50;;;9.88;;
23730;SDS011;12046;44.702;10.622;2022-10-16T05:34:48;17.50;;;10.60;;
23730;SDS011;12046;44.702;10.622;2022-10-16T05:37:16;14.90;;;10.02;;
23730;SDS011;12046;44.702;10.622;2022-10-16T05:39:42;15.57;;;10.18;;
23730;SDS011;12046;44.702;10.622;2022-10-16T05:42:08;15.93;;;10.48;;
23730;SDS011;12046;44.702;10.622;2022-10-16T05:44:34;14.93;;;11.15;;
23730;SDS011;12046;44.702;10.622;2022-10-16T05:47:00;19.30;;;11.13;;
23730;SDS011;12046;44.702;10.622;2022-10-16T05:49:25;17.20;;;11.18;;
23730;SDS011;12046;44.702;10.622;2022-10-16T05:51:51;14.13;;;9.57;;
23730;SDS011;12046;44.702;10.622;2022-10-16T05:54:17;15.13;;;10.05;;
23730;SDS011;12046;44.702;10.622;2022-10-16T05:56:43;15.27;;;9.98;;
23730;SDS011;12046;44.702;10.622;2022-10-16T05:59:09;17.23;;;11.32;;
23730;SDS011;12046;44.702;10.622;2022-10-16T06:01:35;14.27;;;10.27;;
23730;SDS011;12046;44.702;10.622;2022-10-16T06:04:01;17.67;;;10.50;;
23730;SDS011;12046;44.702;10.622;2022-10-16T06:06:28;16.73;;;11.07;;
23730;SDS011;12046;44.702;10.622;2022-10-16T06:08:56;15.38;;;10.20;;
23730;SDS011;12046;44.702;10.622;2022-10-16T06:11:23;17.20;;;10.25;;
23730;SDS011;12046;44.702;10.622;2022-10-16T06:13:51;13.73;;;9.13;;
23730;SDS011;12046;44.702;10.622;2022-10-16T06:16:18;16.60;;;9.40;;
23730;SDS011;12046;44.702;10.622;2022-10-16T06:18:45;15.35;;;9.32;;
23730;SDS011;12046;44.702;10.622;2022-10-16T06:21:12;11.63;;;8.55;;
23730;SDS011;12046;44.702;10.622;2022-10-16T06:23:41;12.40;;;9.48;;
23730;SDS011;12046;44.702;10.622;2022-10-16T06:26:08;11.63;;;8.68;;
23730;SDS011;12046;44.702;10.622;2022-10-16T06:28:36;15.07;;;9.30;;
23730;SDS011;12046;44.702;10.622;2022-10-16T06:31:03;14.30;;;8.40;;
23730;SDS011;12046;44.702;10.622;2022-10-16T06:33:30;12.43;;;8.32;;
23730;SDS011;12046;44.702;10.622;2022-10-16T06:36:06;10.48;;;8.15;;
23730;SDS011;12046;44.702;10.622;2022-10-16T06:38:39;11.98;;;8.30;;
23730;SDS011;12046;44.702;10.622;2022-10-16T06:41:06;12.40;;;8.40;;
23730;SDS011;12046;44.702;10.622;2022-10-16T06:43:33;10.80;;;8.13;;
23730;SDS011;12046;44.702;10.622;2022-10-16T06:46:02;11.10;;;7.68;;
23730;SDS011;12046;44.702;10.622;2022-10-16T06:48:29;11.32;;;7.70;;
23730;SDS011;12046;44.702;10.622;2022-10-16T06:53:51;13.77;;;8.93;;
23730;SDS011;12046;44.702;10.622;2022-10-16T06:56:20;15.57;;;9.63;;
23730;SDS011;12046;44.702;10.622;2022-10-16T06:58:48;12.70;;;9.02;;
23730;SDS011;12046;44.702;10.622;2022-10-16T07:01:15;11.40;;;8.55;;
23730;SDS011;12046;44.702;10.622;2022-10-16T07:03:42;16.75;;;8.93;;
23730;SDS011;12046;44.702;10.622;2022-10-16T07:06:10;11.30;;;8.68;;
23730;SDS011;12046;44.702;10.622;2022-10-16T07:08:38;15.30;;;9.25;;
23730;SDS011;12046;44.702;10.622;2022-10-16T07:11:06;12.38;;;9.55;;
23730;SDS011;12046;44.702;10.622;2022-10-16T07:13:34;13.23;;;9.63;;
23730;SDS011;12046;44.702;10.622;2022-10-16T07:16:08;13.80;;;10.05;;
23730;SDS011;12046;44.702;10.622;2022-10-16T07:18:44;24.15;;;11.55;;
23730;SDS011;12046;44.702;10.622;2022-10-16T07:21:12;15.98;;;11.60;;
23730;SDS011;12046;44.702;10.622;2022-10-16T07:23:40;17.17;;;12.27;;
23730;SDS011;12046;44.702;10.622;2022-10-16T07:26:06;16.58;;;11.63;;
23730;SDS011;12046;44.702;10.622;2022-10-16T07:28:33;17.17;;;12.15;;
23730;SDS011;12046;44.702;10.622;2022-10-16T07:31:02;14.80;;;10.90;;
23730;SDS011;12046;44.702;10.622;2022-10-16T07:33:39;15.80;;;10.85;;
23730;SDS011;12046;44.702;10.622;2022-10-16T07:36:08;15.52;;;10.82;;
23730;SDS011;12046;44.702;10.622;2022-10-16T07:38:34;14.68;;;11.25;;
23730;SDS011;12046;44.702;10.622;2022-10-16T07:41:01;15.10;;;10.32;;
23730;SDS011;12046;44.702;10.622;2022-10-16T07:43:28;16.98;;;10.10;;
23730;SDS011;12046;44.702;10.622;2022-10-16T07:45:55;13.65;;;10.23;;
23730;SDS011;12046;44.702;10.622;2022-10-16T07:48:22;17.10;;;9.75;;
23730;SDS011;12046;44.702;10.622;2022-10-16T07:50:56;16.83;;;10.57;;
23730;SDS011;12046;44.702;10.622;2022-10-16T07:53:26;15.85;;;10.48;;
23730;SDS011;12046;44.702;10.622;2022-10-16T07:55:52;15.82;;;10.05;;
23730;SDS011;12046;44.702;10.622;2022-10-16T07:58:28;15.02;;;10.82;;
23730;SDS011;12046;44.702;10.622;2022-10-16T08:01:03;19.52;;;10.57;;
23730;SDS011;12046;44.702;10.622;2022-10-16T08:03:30;18.02;;;9.43;;
23730;SDS011;12046;44.702;10.622;2022-10-16T08:05:56;16.27;;;11.10;;
23730;SDS011;12046;44.702;10.622;2022-10-16T08:08:23;15.57;;;11.50;;
23730;SDS011;12046;44.702;10.622;2022-10-16T08:10:49;16.50;;;10.63;;
23730;SDS011;12046;44.702;10.622;2022-10-16T08:13:16;14.82;;;10.32;;
23730;SDS011;12046;44.702;10.622;2022-10-16T08:15:43;17.23;;;11.77;;
23730;SDS011;12046;44.702;10.622;2022-10-16T08:18:10;19.02;;;10.57;;
23730;SDS011;12046;44.702;10.622;2022-10-16T08:20:38;16.48;;;11.10;;
23730;SDS011;12046;44.702;10.622;2022-10-16T08:23:06;18.50;;;10.55;;
23730;SDS011;12046;44.702;10.622;2022-10-16T08:25:36;13.75;;;9.20;;
23730;SDS011;12046;44.702;10.622;2022-10-16T08:28:06;14.38;;;9.82;;
23730;SDS011;12046;44.702;10.622;2022-10-16T08:30:34;14.30;;;9.43;;
23730;SDS011;12046;44.702;10.622;2022-10-16T08:33:00;16.50;;;9.40;;
23730;SDS011;12046;44.702;10.622;2022-10-16T08:35:31;14.95;;;9.85;;
23730;SDS011;12046;44.702;10.622;2022-10-16T08:37:57;12.50;;;8.43;;
23730;SDS011;12046;44.702;10.622;2022-10-16T08:40:27;14.85;;;9.40;;
23730;SDS011;12046;44.702;10.622;2022-10-16T08:51:07;12.02;;;9.27;;
23730;SDS011;12046;44.702;10.622;2022-10-16T08:53:40;15.45;;;9.65;;
23730;SDS011;12046;44.702;10.622;2022-10-16T08:58:36;14.00;;;10.73;;
23730;SDS011;12046;44.702;10.622;2022-10-16T09:01:03;14.68;;;9.35;;
23730;SDS011;12046;44.702;10.622;2022-10-16T09:09:41;13.52;;;9.85;;
23730;SDS011;12046;44.702;10.622;2022-10-16T09:17:52;13.73;;;10.38;;
23730;SDS011;12046;44.702;10.622;2022-10-16T09:23:15;12.90;;;9.77;;
23730;SDS011;12046;44.702;10.622;2022-10-16T09:25:41;14.38;;;11.20;;
23730;SDS011;12046;44.702;10.622;2022-10-16T09:28:10;13.63;;;9.93;;
23730;SDS011;12046;44.702;10.622;2022-10-16T09:30:36;12.52;;;10.70;;
23730;SDS011;12046;44.702;10.622;2022-10-16T09:33:04;13.68;;;9.25;;
23730;SDS011;12046;44.702;10.622;2022-10-16T09:38:03;14.93;;;10.57;;
23730;SDS011;12046;44.702;10.622;2022-10-16T09:40:30;18.73;;;11.25;;
23730;SDS011;12046;44.702;10.622;2022-10-16T09:46:00;14.15;;;10.98;;
23730;SDS011;12046;44.702;10.622;2022-10-16T09:48:36;14.60;;;8.95;;
23730;SDS011;12046;44.702;10.622;2022-10-16T09:53:57;17.10;;;10.02;;
23730;SDS011;12046;44.702;10.622;2022-10-16T09:56:27;13.75;;;10.48;;
23730;SDS011;12046;44.702;10.622;2022-10-16T09:58:57;12.55;;;9.07;;
23730;SDS011;12046;44.702;10.622;2022-10-16T10:04:22;17.48;;;10.23;;
23730;SDS011;12046;44.702;10.622;2022-10-16T10:06:52;18.42;;;11.90;;
23730;SDS011;12046;44.702;10.622;2022-10-16T10:09:26;13.88;;;9.73;;
23730;SDS011;12046;44.702;10.622;2022-10-16T10:12:03;21.50;;;12.00;;
23730;SDS011;12046;44.702;10.622;2022-10-16T10:24:44;16.33;;;12.77;;
23730;SDS011;12046;44.702;10.622;2022-10-16T10:27:19;15.75;;;11.57;;
23730;SDS011;12046;44.702;10.622;2022-10-16T10:29:53;14.27;;;10.93;;
23730;SDS011;12046;44.702;10.622;2022-10-16T10:32:39;18.00;;;10.18;;
23730;SDS011;12046;44.702;10.622;2022-10-16T10:35:25;16.15;;;11.70;;
23730;SDS011;12046;44.702;10.622;2022-10-16T10:38:02;16.52;;;11.30;;
23730;SDS011;12046;44.702;10.622;2022-10-16T10:40:56;18.13;;;11.98;;
23730;SDS011;12046;44.702;10.622;2022-10-16T10:46:28;16.95;;;11.07;;
23730;SDS011;12046;44.702;10.622;2022-10-16T10:49:03;16.40;;;11.05;;
23730;SDS011;12046;44.702;10.622;2022-10-16T10:57:34;18.38;;;11.88;;
23730;SDS011;12046;44.702;10.622;2022-10-16T11:02:53;18.83;;;11.40;;
23730;SDS011;12046;44.702;10.622;2022-10-16T11:15:55;19.13;;;11.00;;
23730;SDS011;12046;44.702;10.622;2022-10-16T11:18:26;16.88;;;11.45;;
23730;SDS011;12046;44.702;10.622;2022-10-16T11:21:06;17.75;;;10.95;;
23730;SDS011;12046;44.702;10.622;2022-10-16T11:23:47;15.68;;;9.95;;
23730;SDS011;12046;44.702;10.622;2022-10-16T11:26:21;14.73;;;9.40;;
23730;SDS011;12046;44.702;10.622;2022-10-16T11:28:51;16.73;;;10.50;;
23730;SDS011;12046;44.702;10.622;2022-10-16T11:31:38;17.52;;;11.25;;
23730;SDS011;12046;44.702;10.622;2022-10-16T11:34:32;15.65;;;10.27;;
23730;SDS011;12046;44.702;10.622;2022-10-16T11:37:17;17.38;;;10.90;;
23730;SDS011;12046;44.702;10.622;2022-10-16T11:39:54;12.13;;;9.52;;
23730;SDS011;12046;44.702;10.622;2022-10-16T11:42:37;14.23;;;9.57;;
23730;SDS011;12046;44.702;10.622;2022-10-16T11:45:27;12.80;;;10.15;;
23730;SDS011;12046;44.702;10.622;2022-10-16T11:48:02;11.70;;;7.90;;
23730;SDS011;12046;44.702;10.622;2022-10-16T11:50:50;12.77;;;8.02;;
23730;SDS011;12046;44.702;10.622;2022-10-16T11:56:11;15.98;;;9.82;;
23730;SDS011;12046;44.702;10.622;2022-10-16T12:04:14;16.73;;;10.30;;
23730;SDS011;12046;44.702;10.622;2022-10-16T12:06:55;15.32;;;9.88;;
23730;SDS011;12046;44.702;10.622;2022-10-16T12:09:38;11.35;;;8.00;;
23730;SDS011;12046;44.702;10.622;2022-10-16T12:12:22;12.05;;;7.97;;
23730;SDS011;12046;44.702;10.622;2022-10-16T12:14:59;12.48;;;8.07;;
23730;SDS011;12046;44.702;10.622;2022-10-16T12:17:37;13.52;;;8.73;;
23730;SDS011;12046;44.702;10.622;2022-10-16T12:25:25;12.48;;;9.45;;
23730;SDS011;12046;44.702;10.622;2022-10-16T12:27:54;12.40;;;8.70;;
23730;SDS011;12046;44.702;10.622;2022-10-16T12:30:35;11.63;;;8.95;;
23730;SDS011;12046;44.702;10.622;2022-10-16T12:33:02;11.48;;;7.88;;
23730;SDS011;12046;44.702;10.622;2022-10-16T12:35:44;14.20;;;8.50;;
23730;SDS011;12046;44.702;10.622;2022-10-16T12:38:21;11.35;;;8.30;;
23730;SDS011;12046;44.702;10.622;2022-10-16T12:40:58;12.15;;;8.55;;
23730;SDS011;12046;44.702;10.622;2022-10-16T12:43:38;11.18;;;9.40;;
23730;SDS011;12046;44.702;10.622;2022-10-16T12:48:35;16.05;;;9.07;;
23730;SDS011;12046;44.702;10.622;2022-10-16T12:51:19;11.98;;;9.18;;
23730;SDS011;12046;44.702;10.622;2022-10-16T13:09:08;11.85;;;8.18;;
23730;SDS011;12046;44.702;10.622;2022-10-16T13:12:04;9.55;;;7.22;;
23730;SDS011;12046;44.702;10.622;2022-10-16T13:17:18;13.05;;;7.43;;
23730;SDS011;12046;44.702;10.622;2022-10-16T13:22:42;12.38;;;8.57;;
23730;SDS011;12046;44.702;10.622;2022-10-16T13:25:58;11.63;;;7.78;;
23730;SDS011;12046;44.702;10.622;2022-10-16T13:28:30;12.05;;;8.02;;
23730;SDS011;12046;44.702;10.622;2022-10-16T13:31:02;9.95;;;7.55;;
23730;SDS011;12046;44.702;10.622;2022-10-16T13:33:42;12.57;;;8.20;;
23730;SDS011;12046;44.702;10.622;2022-10-16T13:36:22;11.98;;;8.35;;
23730;SDS011;12046;44.702;10.622;2022-10-16T13:39:15;9.90;;;7.28;;
23730;SDS011;12046;44.702;10.622;2022-10-16T13:41:57;13.32;;;7.57;;
23730;SDS011;12046;44.702;10.622;2022-10-16T13:44:27;9.75;;;6.78;;
23730;SDS011;12046;44.702;10.622;2022-10-16T13:47:00;9.13;;;6.68;;
23730;SDS011;12046;44.702;10.622;2022-10-16T13:49:35;8.43;;;6.68;;
23730;SDS011;12046;44.702;10.622;2022-10-16T13:52:03;9.98;;;6.30;;
23730;SDS011;12046;44.702;10.622;2022-10-16T13:54:41;8.38;;;6.35;;
23730;SDS011;12046;44.702;10.622;2022-10-16T13:57:17;11.10;;;5.90;;
23730;SDS011;12046;44.702;10.622;2022-10-16T13:59:49;9.43;;;6.60;;
23730;SDS011;12046;44.702;10.622;2022-10-16T14:05:10;10.50;;;6.10;;
23730;SDS011;12046;44.702;10.622;2022-10-16T14:07:42;9.55;;;5.78;;
23730;SDS011;12046;44.702;10.622;2022-10-16T14:16:37;10.57;;;6.82;;
23730;SDS011;12046;44.702;10.622;2022-10-16T14:19:18;10.52;;;6.30;;
23730;SDS011;12046;44.702;10.622;2022-10-16T14:21:53;10.18;;;5.07;;
23730;SDS011;12046;44.702;10.622;2022-10-16T14:30:18;7.93;;;6.43;;
23730;SDS011;12046;44.702;10.622;2022-10-16T14:32:57;10.13;;;6.55;;
23730;SDS011;12046;44.702;10.622;2022-10-16T14:35:38;9.38;;;6.35;;
23730;SDS011;12046;44.702;10.622;2022-10-16T14:41:05;7.97;;;5.80;;
23730;SDS011;12046;44.702;10.622;2022-10-16T14:43:33;7.25;;;5.70;;
23730;SDS011;12046;44.702;10.622;2022-10-16T15:18:35;18.80;;;9.70;;
23730;SDS011;12046;44.702;10.622;2022-10-16T15:21:02;15.38;;;9.45;;
23730;SDS011;12046;44.702;10.622;2022-10-16T15:23:28;17.05;;;9.02;;
23730;SDS011;12046;44.702;10.622;2022-10-16T15:25:54;19.80;;;8.77;;
23730;SDS011;12046;44.702;10.622;2022-10-16T15:28:22;17.15;;;9.07;;
23730;SDS011;12046;44.702;10.622;2022-10-16T15:33:59;14.45;;;8.82;;
23730;SDS011;12046;44.702;10.622;2022-10-16T15:36:34;14.88;;;9.73;;
23730;SDS011;12046;44.702;10.622;2022-10-16T15:39:05;17.00;;;10.00;;
23730;SDS011;12046;44.702;10.622;2022-10-16T15:41:44;17.48;;;9.20;;
23730;SDS011;12046;44.702;10.622;2022-10-16T15:44:16;14.05;;;9.80;;
23730;SDS011;12046;44.702;10.622;2022-10-16T15:46:48;16.65;;;9.45;;
23730;SDS011;12046;44.702;10.622;2022-10-16T15:49:15;16.08;;;9.82;;
23730;SDS011;12046;44.702;10.622;2022-10-16T15:51:51;12.98;;;9.02;;
23730;SDS011;12046;44.702;10.622;2022-10-16T15:54:18;12.82;;;9.57;;
23730;SDS011;12046;44.702;10.622;2022-10-16T15:56:47;13.93;;;10.10;;
23730;SDS011;12046;44.702;10.622;2022-10-16T15:59:19;15.70;;;9.95;;
23730;SDS011;12046;44.702;10.622;2022-10-16T16:01:58;16.95;;;10.68;;
23730;SDS011;12046;44.702;10.622;2022-10-16T16:04:24;15.07;;;9.45;;
23730;SDS011;12046;44.702;10.622;2022-10-16T16:06:59;14.15;;;9.25;;
23730;SDS011;12046;44.702;10.622;2022-10-16T16:09:26;19.38;;;8.80;;
23730;SDS011;12046;44.702;10.622;2022-10-16T16:11:54;14.27;;;9.32;;
23730;SDS011;12046;44.702;10.622;2022-10-16T16:14:20;14.07;;;9.20;;
23730;SDS011;12046;44.702;10.622;2022-10-16T16:16:47;16.80;;;8.82;;
23730;SDS011;12046;44.702;10.622;2022-10-16T16:19:13;15.73;;;9.43;;
23730;SDS011;12046;44.702;10.622;2022-10-16T16:21:44;14.13;;;9.57;;
23730;SDS011;12046;44.702;10.622;2022-10-16T16:24:10;16.45;;;8.45;;
23730;SDS011;12046;44.702;10.622;2022-10-16T16:26:36;18.20;;;8.90;;
23730;SDS011;12046;44.702;10.622;2022-10-16T16:29:12;13.85;;;7.80;;
23730;SDS011;12046;44.702;10.622;2022-10-16T16:32:03;14.43;;;8.10;;
23730;SDS011;12046;44.702;10.622;2022-10-16T16:34:38;14.85;;;8.20;;
23730;SDS011;12046;44.702;10.622;2022-10-16T16:37:04;13.40;;;8.10;;
23730;SDS011;12046;44.702;10.622;2022-10-16T16:39:34;11.23;;;8.57;;
23730;SDS011;12046;44.702;10.622;2022-10-16T16:42:03;14.48;;;8.75;;
23730;SDS011;12046;44.702;10.622;2022-10-16T16:45:00;13.77;;;8.27;;
23730;SDS011;12046;44.702;10.622;2022-10-16T16:47:27;14.07;;;9.23;;
23730;SDS011;12046;44.702;10.622;2022-10-16T16:49:55;13.82;;;8.93;;
23730;SDS011;12046;44.702;10.622;2022-10-16T16:52:22;13.23;;;8.43;;
23730;SDS011;12046;44.702;10.622;2022-10-16T16:54:49;16.00;;;8.85;;
23730;SDS011;12046;44.702;10.622;2022-10-16T16:57:19;12.93;;;8.20;;
23730;SDS011;12046;44.702;10.622;2022-10-16T16:59:49;15.65;;;8.23;;
23730;SDS011;12046;44.702;10.622;2022-10-16T17:02:20;12.80;;;8.73;;
23730;SDS011;12046;44.702;10.622;2022-10-16T17:04:46;11.90;;;8.57;;
23730;SDS011;12046;44.702;10.622;2022-10-16T17:07:18;16.65;;;8.60;;
23730;SDS011;12046;44.702;10.622;2022-10-16T17:09:44;16.70;;;8.85;;
23730;SDS011;12046;44.702;10.622;2022-10-16T17:12:10;11.75;;;7.63;;
23730;SDS011;12046;44.702;10.622;2022-10-16T17:14:36;15.23;;;8.82;;
23730;SDS011;12046;44.702;10.622;2022-10-16T17:17:02;17.83;;;9.00;;
23730;SDS011;12046;44.702;10.622;2022-10-16T17:19:55;16.45;;;9.63;;
23730;SDS011;12046;44.702;10.622;2022-10-16T17:22:22;14.95;;;9.70;;
23730;SDS011;12046;44.702;10.622;2022-10-16T17:24:49;11.00;;;8.20;;
23730;SDS011;12046;44.702;10.622;2022-10-16T17:27:17;17.38;;;9.48;;
23730;SDS011;12046;44.702;10.622;2022-10-16T17:29:43;16.08;;;8.50;;
23730;SDS011;12046;44.702;10.622;2022-10-16T17:32:10;13.90;;;10.10;;
23730;SDS011;12046;44.702;10.622;2022-10-16T17:34:36;11.55;;;8.70;;
23730;SDS011;12046;44.702;10.622;2022-10-16T17:37:05;18.77;;;11.52;;
23730;SDS011;12046;44.702;10.622;2022-10-16T17:39:31;15.80;;;11.20;;